Terminal Aerodrome Forecast
Issued by NWS

Home | Current Version | Previous Version | Text Only | Print | Product List | Glossary On
Versions: 1 2 3 4 5 6 7 8 9 10 11 12 13 14 15 16 17 18 19 20 21 22 23 24 25 26 27 28 29
632
FTUS46 KSEW 291721
TAFSEA
TAF
KSEA 291721Z 2918/3024 36008KT P6SM FEW020 FEW150 BKN250
     FM291900 31008KT P6SM FEW150 SCT250
     FM300400 01005KT P6SM SCT250
     FM301300 20004KT P6SM FEW010 SCT250
     FM301400 20004KT P6SM BKN008
     FM301800 20005KT P6SM FEW012=

USA.gov is the U.S. government's official web portal to all federal, state and local government web resources and services.